CheckWX is a tool to help pilots better visualize weather data.  It is not intended as a substitute for an official pre-flight weather briefing.

17:36:45 UTC

OJAI TAF
Queen Alia International Airport
Amman, Jordan
TAF OJAI 181100Z 1812/1918 28012KT 7000 NSC PROB30 TEMPO 1812/1815 28014KT 5000 HZ

Jun-18@
12:00 UTC

Jun-18 @ 12:00 UTC

Jun-19@
18:00 UTC

Jun-19 @ 18:00 UTC

TAF OJAI 181100Z 1812/1918 28012KT 7000 NSC
Wind
  • 280° at 12 KTS
Cloud Levels
  • No significant clouds

Jun-18@
12:00 UTC

Jun-18 @ 12:00 UTC

Jun-18@
15:00 UTC

Jun-18 @ 15:00 UTC

PROB30 TEMPO 1812/1815 28014KT 5000 HZ

Expired

Wind
  • 280° at 14 KTS
Conditions
Haze